createdAt,value
2019-03-23T00:00:00.374Z,195.60
2019-03-23T00:02:30.238Z,201.60
2019-03-23T00:05:00.255Z,201.33
2019-03-23T00:07:29.427Z,206.93
2019-03-23T00:09:58.969Z,210.83
2019-03-23T00:12:28.230Z,201.53
2019-03-23T00:14:57.865Z,207.13
2019-03-23T00:17:27.362Z,223.73
2019-03-23T00:19:56.938Z,216.43
2019-03-23T00:22:26.487Z,220.77
2019-03-23T00:24:55.692Z,210.27
2019-03-23T00:27:25.190Z,212.13
2019-03-23T00:29:54.701Z,208.67
2019-03-23T00:32:23.907Z,215.77
2019-03-23T00:34:53.401Z,204.77
2019-03-23T00:37:22.908Z,214.27
2019-03-23T00:39:52.413Z,205.10
2019-03-23T00:42:21.905Z,221.90
2019-03-23T00:44:51.745Z,212.33
2019-03-23T00:47:21.258Z,242.07
2019-03-23T00:49:50.852Z,207.07
2019-03-23T00:52:20.012Z,205.40
2019-03-23T00:54:50.162Z,207.10
2019-03-23T00:57:19.681Z,211.83
2019-03-23T00:59:49.592Z,217.77
2019-03-23T01:02:19.074Z,219.33
2019-03-23T01:04:48.583Z,225.60
2019-03-23T01:07:18.104Z,203.97
2019-03-23T01:09:47.699Z,207.97
2019-03-23T01:12:17.220Z,220.97
2019-03-23T01:14:46.410Z,197.87
2019-03-23T01:17:15.917Z,206.87
2019-03-23T01:19:45.425Z,199.27
2019-03-23T01:22:14.635Z,206.60
2019-03-23T01:24:44.132Z,197.57
2019-03-23T01:27:13.352Z,199.90
2019-03-23T01:29:42.547Z,212.50
2019-03-23T01:32:12.343Z,213.97
2019-03-23T01:34:41.846Z,215.37
2019-03-23T01:37:11.350Z,199.53
2019-03-23T01:39:40.556Z,209.07
2019-03-23T01:42:09.720Z,210.00
2019-03-23T01:44:39.157Z,208.87
2019-03-23T01:47:08.382Z,212.83
2019-03-23T01:49:37.568Z,192.93
2019-03-23T01:52:07.069Z,209.30
2019-03-23T01:54:36.560Z,184.73
2019-03-23T01:57:06.479Z,196.00
2019-03-23T01:59:35.985Z,197.00
2019-03-23T02:02:05.234Z,201.40
2019-03-23T02:04:34.412Z,218.47
2019-03-23T02:07:13.523Z,200.37
2019-03-23T02:09:34.902Z,218.07
2019-03-23T02:12:04.434Z,200.37
2019-03-23T02:14:34.552Z,215.53
2019-03-23T02:17:03.805Z,198.73
2019-03-23T02:19:33.977Z,203.33
2019-03-23T02:22:03.597Z,184.63
2019-03-23T02:24:32.775Z,202.47
2019-03-23T02:27:02.712Z,189.20
2019-03-23T02:29:32.506Z,189.30
2019-03-23T02:32:01.699Z,187.10
2019-03-23T02:34:31.217Z,203.90
2019-03-23T02:37:00.851Z,196.00
2019-03-23T02:39:30.046Z,197.10
2019-03-23T02:41:59.217Z,205.70
2019-03-23T02:44:28.723Z,207.83
2019-03-23T02:46:58.235Z,200.37
2019-03-23T02:49:27.737Z,190.93
2019-03-23T02:51:57.659Z,210.03
2019-03-23T02:54:27.161Z,186.90
2019-03-23T02:56:56.968Z,208.03
2019-03-23T02:59:27.320Z,196.17
2019-03-23T03:01:56.814Z,193.03
2019-03-23T03:04:25.990Z,192.67
2019-03-23T03:06:55.607Z,202.70
2019-03-23T03:09:24.905Z,205.10
2019-03-23T03:11:54.422Z,193.80
2019-03-23T03:14:23.589Z,199.83
2019-03-23T03:16:53.435Z,191.57
2019-03-23T03:19:22.655Z,192.00
2019-03-23T03:21:52.435Z,199.10
2019-03-23T03:24:21.635Z,212.03
2019-03-23T03:26:51.156Z,216.70
2019-03-23T03:29:20.641Z,210.97
2019-03-23T03:31:50.251Z,203.93
2019-03-23T03:34:19.470Z,195.53
2019-03-23T03:36:49.485Z,193.43
2019-03-23T03:39:18.680Z,206.07
2019-03-23T03:41:48.173Z,195.97
2019-03-23T03:44:17.429Z,195.77
2019-03-23T03:46:46.883Z,195.07
2019-03-23T03:49:16.394Z,210.07
2019-03-23T03:51:45.908Z,212.80
2019-03-23T03:54:15.802Z,201.27
2019-03-23T03:56:45.379Z,198.30
2019-03-23T03:59:14.560Z,191.57
2019-03-23T04:01:44.015Z,184.07
2019-03-23T04:04:13.937Z,201.03
2019-03-23T04:06:43.411Z,209.03
2019-03-23T04:09:13.246Z,216.87
2019-03-23T04:11:42.453Z,229.93
2019-03-23T04:14:11.628Z,217.33
2019-03-23T04:16:41.174Z,244.47
2019-03-23T04:19:10.334Z,213.53
2019-03-23T04:21:39.896Z,216.67
2019-03-23T04:24:09.359Z,194.67
2019-03-23T04:26:39.415Z,229.10
2019-03-23T04:29:09.357Z,247.57
2019-03-23T04:31:38.921Z,244.23
2019-03-23T04:34:08.093Z,255.23
2019-03-23T04:36:37.289Z,245.00
2019-03-23T04:39:07.629Z,234.80
2019-03-23T04:41:36.833Z,240.10
2019-03-23T04:44:06.329Z,218.77
2019-03-23T04:46:35.834Z,199.53
2019-03-23T04:49:05.442Z,219.27
2019-03-23T04:51:35.054Z,229.20
2019-03-23T04:54:04.258Z,218.13
2019-03-23T04:56:33.504Z,229.33
2019-03-23T04:59:03.269Z,223.00
2019-03-23T05:01:33.072Z,216.70
2019-03-23T05:04:02.588Z,211.70
2019-03-23T05:06:31.820Z,204.77
2019-03-23T05:09:01.282Z,206.77
2019-03-23T05:11:30.906Z,237.87
2019-03-23T05:14:00.808Z,210.57
2019-03-23T05:16:30.002Z,230.33
2019-03-23T05:18:59.506Z,228.40
2019-03-23T05:21:29.004Z,210.00
2019-03-23T05:23:58.538Z,203.70
2019-03-23T05:26:28.640Z,205.93
2019-03-23T05:28:58.146Z,214.27
2019-03-23T05:31:27.654Z,209.50
2019-03-23T05:33:56.852Z,192.27
2019-03-23T05:36:26.770Z,207.83
2019-03-23T05:38:55.957Z,193.07
2019-03-23T05:41:25.471Z,208.13
2019-03-23T05:43:54.980Z,199.93
2019-03-23T05:46:24.500Z,224.17
2019-03-23T05:48:54.287Z,205.27
2019-03-23T05:51:24.113Z,192.10
2019-03-23T05:53:53.612Z,172.20
2019-03-23T05:56:23.236Z,172.20
2019-03-23T05:58:52.730Z,191.77
2019-03-23T06:01:22.283Z,196.07
2019-03-23T06:03:51.468Z,196.50
2019-03-23T06:06:20.967Z,216.60
2019-03-23T06:08:55.016Z,209.17
2019-03-23T06:11:21.390Z,209.27
2019-03-23T06:13:50.711Z,228.23
2019-03-23T06:16:20.505Z,216.37
2019-03-23T06:18:49.708Z,227.10
2019-03-23T06:21:19.509Z,246.60
2019-03-23T06:23:49.154Z,245.23
2019-03-23T06:26:18.933Z,261.87
2019-03-23T06:28:48.432Z,250.30
2019-03-23T06:31:18.040Z,219.07
2019-03-23T06:33:47.207Z,209.00
2019-03-23T06:36:16.733Z,234.03
2019-03-23T06:38:46.278Z,241.37
2019-03-23T06:41:15.458Z,226.03
2019-03-23T06:43:45.266Z,210.13
2019-03-23T06:46:14.782Z,222.50
2019-03-23T06:48:44.550Z,227.77
2019-03-23T06:51:14.097Z,223.90
2019-03-23T06:53:43.288Z,202.77
2019-03-23T06:56:13.097Z,222.90
2019-03-23T06:58:42.609Z,217.10
2019-03-23T07:01:11.876Z,222.70
2019-03-23T07:03:41.309Z,210.53
2019-03-23T07:06:11.227Z,186.27
2019-03-23T07:08:41.291Z,209.53
2019-03-23T07:11:11.040Z,182.13
2019-03-23T07:13:40.872Z,173.93
2019-03-23T07:16:10.376Z,161.70
2019-03-23T07:18:39.880Z,164.53
2019-03-23T07:21:09.634Z,160.10
2019-03-23T07:23:39.248Z,156.73
2019-03-23T07:26:08.455Z,146.20
2019-03-23T07:28:37.650Z,136.90
2019-03-23T07:31:06.905Z,133.80
2019-03-23T07:33:36.060Z,139.43
2019-03-23T07:36:05.709Z,134.10
2019-03-23T07:38:34.903Z,125.33
2019-03-23T07:41:04.076Z,135.87
2019-03-23T07:43:33.812Z,132.57
2019-03-23T07:46:03.331Z,138.37
2019-03-23T07:48:32.909Z,128.67
2019-03-23T07:51:02.737Z,133.53
2019-03-23T07:53:32.553Z,149.83
2019-03-23T07:56:02.062Z,127.53
2019-03-23T07:58:32.307Z,141.23
2019-03-23T08:01:01.493Z,125.20
2019-03-23T08:03:30.986Z,126.53
2019-03-23T08:06:00.594Z,116.80
2019-03-23T08:08:29.892Z,126.57
2019-03-23T08:10:59.509Z,111.30
2019-03-23T08:13:29.079Z,101.87
2019-03-23T08:15:58.924Z,126.63
2019-03-23T08:18:28.512Z,119.77
2019-03-23T08:20:58.034Z,125.43
2019-03-23T08:23:27.309Z,130.67
2019-03-23T08:25:56.511Z,130.13
2019-03-23T08:28:26.352Z,145.23
2019-03-23T08:30:56.470Z,146.50
2019-03-23T08:33:26.499Z,135.03
2019-03-23T08:35:56.915Z,111.13
2019-03-23T08:38:26.415Z,118.10
2019-03-23T08:40:55.933Z,125.17
2019-03-23T08:43:25.153Z,103.70
2019-03-23T08:45:54.627Z,105.47
2019-03-23T08:48:23.859Z,108.47
2019-03-23T08:50:53.135Z,94.13
2019-03-23T08:53:22.303Z,92.73
2019-03-23T08:55:51.831Z,94.87
2019-03-23T08:58:28.362Z,99.77
2019-03-23T09:00:58.867Z,107.67
2019-03-23T09:03:28.114Z,101.67
2019-03-23T09:05:57.341Z,108.60
2019-03-23T09:08:26.845Z,107.93
2019-03-23T09:10:56.341Z,82.60
2019-03-23T09:13:26.123Z,101.17
2019-03-23T09:15:55.279Z,98.37
2019-03-23T09:18:25.065Z,94.17
2019-03-23T09:20:54.880Z,95.33
2019-03-23T09:23:24.390Z,100.67
2019-03-23T09:25:54.505Z,96.70
2019-03-23T09:28:24.052Z,102.00
2019-03-23T09:30:53.619Z,95.03
2019-03-23T09:33:22.843Z,95.53
2019-03-23T09:35:52.238Z,95.70
2019-03-23T09:38:22.195Z,88.27
2019-03-23T09:40:51.641Z,87.53
2019-03-23T09:43:21.458Z,81.17
2019-03-23T09:45:51.676Z,79.83
2019-03-23T09:48:20.856Z,74.67
2019-03-23T09:50:50.274Z,75.77
2019-03-23T09:53:19.456Z,77.77
2019-03-23T09:55:48.666Z,66.27
2019-03-23T09:58:17.855Z,76.07
2019-03-23T10:00:47.131Z,74.00
2019-03-23T10:03:16.585Z,75.50
2019-03-23T10:05:46.392Z,70.93
2019-03-23T10:08:18.458Z,70.23
2019-03-23T10:10:47.670Z,76.67
2019-03-23T10:13:16.864Z,69.60
2019-03-23T10:15:46.667Z,70.30
2019-03-23T10:18:16.205Z,66.73
2019-03-23T10:20:45.959Z,65.97
2019-03-23T10:23:15.106Z,62.50
2019-03-23T10:25:44.615Z,72.73
2019-03-23T10:28:13.755Z,61.43
2019-03-23T10:30:43.184Z,62.57
2019-03-23T10:33:12.695Z,68.23
2019-03-23T10:35:41.860Z,61.97
2019-03-23T10:38:11.403Z,56.83
2019-03-23T10:40:42.901Z,62.03
2019-03-23T10:43:12.234Z,63.90
2019-03-23T10:45:44.313Z,66.27
2019-03-23T10:48:12.705Z,67.93
2019-03-23T10:50:42.182Z,68.90
2019-03-23T10:53:11.710Z,69.07
2019-03-23T10:55:40.908Z,68.53
2019-03-23T10:58:11.030Z,76.03
2019-03-23T11:00:40.211Z,74.60
2019-03-23T11:03:09.668Z,67.70
2019-03-23T11:05:38.828Z,67.20
2019-03-23T11:08:08.343Z,65.90
2019-03-23T11:10:41.925Z,68.13
2019-03-23T11:13:09.351Z,71.53
2019-03-23T11:15:38.657Z,63.83
2019-03-23T11:18:08.407Z,65.57
2019-03-23T11:20:37.913Z,67.43
2019-03-23T11:23:07.520Z,73.30
2019-03-23T11:25:36.722Z,66.07
2019-03-23T11:28:06.325Z,64.80
2019-03-23T11:30:36.147Z,66.40
2019-03-23T11:33:05.497Z,79.70
2019-03-23T11:35:34.700Z,82.93
2019-03-23T11:38:04.546Z,87.63
2019-03-23T11:40:34.160Z,83.00
2019-03-23T11:43:03.667Z,82.43
2019-03-23T11:45:33.164Z,81.03
2019-03-23T11:48:02.606Z,76.90
2019-03-23T11:50:31.815Z,81.90
2019-03-23T11:53:01.288Z,76.30
2019-03-23T11:55:30.450Z,80.87
2019-03-23T11:58:00.240Z,75.67
2019-03-23T12:00:29.695Z,80.33
2019-03-23T12:02:59.508Z,79.67
2019-03-23T12:05:29.424Z,69.00
2019-03-23T12:07:59.240Z,69.43
2019-03-23T12:10:28.399Z,81.97
2019-03-23T12:12:58.263Z,81.67
2019-03-23T12:15:29.732Z,61.90
2019-03-23T12:17:58.342Z,70.93
2019-03-23T12:20:28.094Z,68.63
2019-03-23T12:22:57.561Z,67.90
2019-03-23T12:25:27.108Z,59.73
2019-03-23T12:27:56.341Z,70.60
2019-03-23T12:30:25.820Z,76.73
2019-03-23T12:32:55.010Z,69.33
2019-03-23T12:35:24.503Z,66.43
2019-03-23T12:37:53.706Z,66.87
2019-03-23T12:40:23.228Z,56.67
2019-03-23T12:42:52.383Z,52.93
2019-03-23T12:45:21.825Z,48.80
2019-03-23T12:47:51.049Z,56.03
2019-03-23T12:50:20.240Z,56.03
2019-03-23T12:52:49.734Z,54.90
2019-03-23T12:55:18.926Z,50.70
2019-03-23T12:57:48.535Z,54.00
2019-03-23T13:00:18.142Z,48.37
2019-03-23T13:02:47.657Z,49.43
2019-03-23T13:05:17.155Z,51.73
2019-03-23T13:07:46.354Z,49.53
2019-03-23T13:10:16.378Z,46.57
2019-03-23T13:12:45.627Z,49.27
2019-03-23T13:15:15.481Z,50.33
2019-03-23T13:17:44.984Z,47.63
2019-03-23T13:20:14.817Z,50.40
2019-03-23T13:22:44.027Z,47.90
2019-03-23T13:25:13.716Z,46.97
2019-03-23T13:27:43.207Z,47.20
2019-03-23T13:30:12.928Z,44.40
2019-03-23T13:32:42.116Z,37.67
2019-03-23T13:35:11.393Z,35.93
2019-03-23T13:37:40.657Z,47.23
2019-03-23T13:40:10.644Z,39.03
2019-03-23T13:42:40.154Z,40.43
2019-03-23T13:45:10.023Z,41.43
2019-03-23T13:47:39.678Z,36.43
2019-03-23T13:50:10.012Z,36.00
2019-03-23T13:52:39.304Z,41.97
2019-03-23T13:55:10.438Z,49.83
2019-03-23T13:57:40.064Z,44.27
2019-03-23T14:00:09.836Z,44.63
2019-03-23T14:02:39.144Z,45.70
2019-03-23T14:05:16.079Z,44.87
2019-03-23T14:07:39.697Z,51.53
2019-03-23T14:10:09.071Z,43.90
2019-03-23T14:12:38.608Z,42.97
2019-03-23T14:15:08.461Z,44.23
2019-03-23T14:17:38.057Z,43.83
2019-03-23T14:20:08.064Z,44.00
2019-03-23T14:22:37.671Z,47.53
2019-03-23T14:25:06.987Z,44.23
2019-03-23T14:27:36.666Z,43.60
2019-03-23T14:30:07.209Z,39.83
2019-03-23T14:32:36.404Z,41.73
2019-03-23T14:35:06.137Z,44.70
2019-03-23T14:37:36.188Z,41.80
2019-03-23T14:40:06.055Z,43.67
2019-03-23T14:42:35.866Z,40.83
2019-03-23T14:45:05.403Z,40.43
2019-03-23T14:47:35.292Z,42.90
2019-03-23T14:50:05.631Z,36.30
2019-03-23T14:52:34.851Z,33.53
2019-03-23T14:55:04.620Z,39.30
2019-03-23T14:57:33.825Z,34.07
2019-03-23T15:00:03.308Z,33.83
2019-03-23T15:02:32.521Z,32.70
2019-03-23T15:05:01.696Z,33.80
2019-03-23T15:07:30.858Z,40.60
2019-03-23T15:10:00.039Z,35.93
2019-03-23T15:12:29.775Z,33.37
2019-03-23T15:14:59.229Z,35.63
2019-03-23T15:17:28.725Z,35.80
2019-03-23T15:19:58.242Z,36.50
2019-03-23T15:22:27.760Z,43.70
2019-03-23T15:24:57.561Z,44.70
2019-03-23T15:27:27.068Z,37.43
2019-03-23T15:29:56.845Z,39.00
2019-03-23T15:32:26.389Z,38.60
2019-03-23T15:34:55.900Z,34.67
2019-03-23T15:37:25.402Z,39.73
2019-03-23T15:39:54.913Z,33.17
2019-03-23T15:42:25.076Z,33.53
2019-03-23T15:44:54.829Z,19.33
2019-03-23T15:47:24.744Z,21.43
2019-03-23T15:49:54.255Z,27.63
2019-03-23T15:52:23.784Z,23.30
2019-03-23T15:54:53.270Z,19.57
2019-03-23T15:57:22.449Z,19.67
2019-03-23T15:59:51.988Z,20.00
2019-03-23T16:02:21.727Z,19.97
2019-03-23T16:04:51.607Z,21.57
2019-03-23T16:07:29.228Z,17.90
2019-03-23T16:09:52.355Z,17.73
2019-03-23T16:12:21.584Z,21.00
2019-03-23T16:14:51.060Z,23.57
2019-03-23T16:17:21.177Z,17.00
2019-03-23T16:19:50.380Z,18.20
2019-03-23T16:22:19.885Z,19.63
2019-03-23T16:24:49.100Z,17.63
2019-03-23T16:27:18.308Z,17.03
2019-03-23T16:29:47.809Z,14.27
2019-03-23T16:32:16.968Z,15.93
2019-03-23T16:34:46.483Z,15.30
2019-03-23T16:37:16.300Z,15.33
2019-03-23T16:39:45.803Z,14.23
2019-03-23T16:42:15.312Z,13.33
2019-03-23T16:44:45.126Z,19.23
2019-03-23T16:47:14.296Z,16.90
2019-03-23T16:49:44.043Z,14.97
2019-03-23T16:52:13.544Z,16.37
2019-03-23T16:54:42.759Z,16.83
2019-03-23T16:57:11.958Z,16.33
2019-03-23T16:59:41.116Z,19.07
2019-03-23T17:02:10.647Z,15.97
2019-03-23T17:04:40.451Z,18.80
2019-03-23T17:07:09.960Z,17.90
2019-03-23T17:09:39.213Z,15.03
2019-03-23T17:12:08.360Z,26.10
2019-03-23T17:14:37.557Z,12.47
2019-03-23T17:17:07.069Z,15.10
2019-03-23T17:19:36.869Z,12.63
2019-03-23T17:22:06.005Z,12.97
2019-03-23T17:24:35.474Z,14.33
2019-03-23T17:27:05.085Z,12.40
2019-03-23T17:29:34.797Z,16.50
2019-03-23T17:32:04.304Z,17.33
2019-03-23T17:34:33.823Z,19.37
2019-03-23T17:37:03.036Z,16.83
2019-03-23T17:39:33.025Z,13.20
2019-03-23T17:42:02.507Z,14.30
2019-03-23T17:44:31.707Z,13.90
2019-03-23T17:47:01.232Z,10.17
2019-03-23T17:49:30.411Z,14.23
2019-03-23T17:52:00.046Z,11.40
2019-03-23T17:54:30.772Z,11.30
2019-03-23T17:56:59.947Z,12.53
2019-03-23T17:59:29.791Z,9.87
2019-03-23T18:01:59.275Z,13.80
2019-03-23T18:04:28.505Z,16.87
2019-03-23T18:06:58.095Z,13.70
2019-03-23T18:09:27.611Z,16.10
2019-03-23T18:11:57.227Z,17.17
2019-03-23T18:14:26.725Z,9.33
2019-03-23T18:16:56.043Z,12.53
2019-03-23T18:19:25.573Z,13.37
2019-03-23T18:21:55.138Z,9.97
2019-03-23T18:24:24.307Z,15.43
2019-03-23T18:26:53.845Z,7.27
2019-03-23T18:29:23.654Z,9.97
2019-03-23T18:31:53.117Z,12.07
2019-03-23T18:34:22.861Z,8.50
2019-03-23T18:36:53.094Z,15.70
2019-03-23T18:39:22.595Z,7.83
2019-03-23T18:41:52.201Z,10.20
2019-03-23T18:44:22.026Z,9.87
2019-03-23T18:46:51.827Z,13.33
2019-03-23T18:49:21.424Z,8.30
2019-03-23T18:51:50.574Z,13.47
2019-03-23T18:54:20.327Z,11.10
2019-03-23T18:56:50.157Z,10.47
2019-03-23T18:59:19.353Z,7.03
2019-03-23T19:01:48.877Z,8.40
2019-03-23T19:04:18.674Z,8.17
2019-03-23T19:06:48.186Z,8.50
2019-03-23T19:09:17.990Z,10.07
2019-03-23T19:11:47.504Z,12.40
2019-03-23T19:14:17.310Z,10.50
2019-03-23T19:16:46.815Z,13.10
2019-03-23T19:19:16.370Z,10.47
2019-03-23T19:21:45.827Z,13.93
2019-03-23T19:24:15.335Z,11.40
2019-03-23T19:26:45.149Z,12.37
2019-03-23T19:29:14.669Z,11.10
2019-03-23T19:31:43.842Z,13.53
2019-03-23T19:34:13.047Z,8.27
2019-03-23T19:36:42.558Z,10.67
2019-03-23T19:39:12.054Z,10.07
2019-03-23T19:41:41.574Z,13.80
2019-03-23T19:44:10.766Z,10.90
2019-03-23T19:46:40.269Z,13.90
2019-03-23T19:49:09.435Z,13.50
2019-03-23T19:51:38.642Z,10.10
2019-03-23T19:54:07.841Z,14.90
2019-03-23T19:56:37.031Z,11.57
2019-03-23T19:59:06.902Z,16.17
2019-03-23T20:01:36.394Z,14.13
2019-03-23T20:04:05.744Z,18.90
2019-03-23T20:06:35.500Z,16.90
2019-03-23T20:09:07.152Z,16.90
2019-03-23T20:11:36.762Z,13.40
2019-03-23T20:14:06.577Z,23.57
2019-03-23T20:16:35.794Z,12.93
2019-03-23T20:19:05.116Z,16.40
2019-03-23T20:21:34.401Z,19.07
2019-03-23T20:24:03.883Z,12.43
2019-03-23T20:26:33.142Z,16.43
2019-03-23T20:29:02.731Z,17.47
2019-03-23T20:31:32.326Z,19.13
2019-03-23T20:34:01.900Z,13.53
2019-03-23T20:36:31.100Z,24.67
2019-03-23T20:39:00.283Z,20.13
2019-03-23T20:41:30.345Z,15.80
2019-03-23T20:44:09.027Z,17.63
2019-03-23T20:46:31.280Z,17.80
2019-03-23T20:49:00.565Z,18.13
2019-03-23T20:51:29.853Z,14.97
2019-03-23T20:53:59.047Z,15.37
2019-03-23T20:56:28.304Z,19.57
2019-03-23T20:58:58.037Z,17.67
2019-03-23T21:01:27.492Z,16.77
2019-03-23T21:03:56.699Z,17.37
2019-03-23T21:06:25.886Z,19.00
2019-03-23T21:08:55.395Z,18.67
2019-03-23T21:11:24.581Z,20.50
2019-03-23T21:13:54.212Z,22.60
2019-03-23T21:16:24.758Z,17.53
2019-03-23T21:18:54.223Z,15.70
2019-03-23T21:21:24.049Z,19.70
2019-03-23T21:23:53.571Z,19.37
2019-03-23T21:26:22.766Z,18.87
2019-03-23T21:28:52.362Z,14.17
2019-03-23T21:31:21.541Z,16.60
2019-03-23T21:33:51.370Z,15.27
2019-03-23T21:36:20.538Z,20.03
2019-03-23T21:38:50.348Z,12.70
2019-03-23T21:41:19.546Z,16.53
2019-03-23T21:43:49.709Z,17.90
2019-03-23T21:46:18.897Z,15.23
2019-03-23T21:48:48.409Z,22.80
2019-03-23T21:51:18.550Z,14.70
2019-03-23T21:53:48.342Z,19.80
2019-03-23T21:56:17.854Z,19.97
2019-03-23T21:58:47.039Z,21.90
2019-03-23T22:01:16.587Z,10.47
2019-03-23T22:03:46.360Z,15.77
2019-03-23T22:06:15.575Z,12.90
2019-03-23T22:08:45.397Z,9.00
2019-03-23T22:11:14.880Z,18.13
2019-03-23T22:13:44.515Z,26.20
2019-03-23T22:16:14.048Z,21.67
2019-03-23T22:18:43.791Z,17.67
2019-03-23T22:21:13.051Z,15.37
2019-03-23T22:23:42.359Z,14.53
2019-03-23T22:26:11.919Z,16.23
2019-03-23T22:28:41.110Z,18.40
2019-03-23T22:31:10.275Z,15.93
2019-03-23T22:33:39.837Z,13.23
2019-03-23T22:36:09.023Z,16.73
2019-03-23T22:38:38.519Z,20.07
2019-03-23T22:41:07.686Z,13.03
2019-03-23T22:43:37.126Z,15.67
2019-03-23T22:46:06.355Z,19.57
2019-03-23T22:48:35.827Z,12.73
2019-03-23T22:51:05.097Z,12.37
2019-03-23T22:53:34.534Z,15.57
2019-03-23T22:56:04.138Z,10.07
2019-03-23T22:58:33.301Z,16.47
2019-03-23T23:01:02.543Z,14.43
2019-03-23T23:03:32.454Z,20.63
2019-03-23T23:06:01.641Z,12.00
2019-03-23T23:08:31.196Z,13.67
2019-03-23T23:11:00.378Z,15.93
2019-03-23T23:13:30.165Z,13.47
2019-03-23T23:15:59.780Z,21.03
2019-03-23T23:18:29.289Z,22.43
2019-03-23T23:20:58.907Z,16.20
2019-03-23T23:23:28.115Z,17.47
2019-03-23T23:25:57.598Z,14.27
2019-03-23T23:28:27.108Z,20.03
2019-03-23T23:30:56.636Z,13.73
2019-03-23T23:33:26.960Z,17.60
2019-03-23T23:35:56.437Z,15.40
2019-03-23T23:38:26.358Z,12.67
2019-03-23T23:40:55.864Z,17.20
2019-03-23T23:43:25.220Z,20.20
2019-03-23T23:45:54.767Z,21.57
2019-03-23T23:48:23.951Z,20.40
2019-03-23T23:50:53.883Z,15.30
2019-03-23T23:53:23.081Z,16.17
2019-03-23T23:55:52.599Z,14.40
2019-03-23T23:58:22.112Z,15.13
